createdAt,value
2024-01-11T00:00:34.153Z,0.00
2024-01-11T00:01:34.921Z,0.44
2024-01-11T00:02:35.406Z,1.12
2024-01-11T00:03:34.174Z,0.92
2024-01-11T00:04:33.972Z,1.84
2024-01-11T00:05:33.540Z,1.64
2024-01-11T00:06:34.433Z,0.64
2024-01-11T00:07:34.827Z,1.20
2024-01-11T00:08:33.106Z,1.40
2024-01-11T00:09:38.098Z,1.96
2024-01-11T00:10:29.320Z,3.68
2024-01-11T00:11:29.339Z,2.72
2024-01-11T00:12:33.775Z,3.24
2024-01-11T00:13:37.342Z,2.04
2024-01-11T00:14:36.739Z,2.32
2024-01-11T00:15:37.178Z,3.20
2024-01-11T00:16:38.527Z,0.96
2024-01-11T00:17:35.964Z,1.64
2024-01-11T00:18:38.476Z,0.12
2024-01-11T00:19:37.982Z,0.00
2024-01-11T00:20:38.136Z,0.00
2024-01-11T00:21:41.643Z,0.00
2024-01-11T00:22:36.254Z,0.00
2024-01-11T00:23:38.620Z,0.32
2024-01-11T00:24:39.739Z,0.12
2024-01-11T00:25:38.101Z,0.00
2024-01-11T00:26:38.438Z,0.00
2024-01-11T00:27:38.314Z,0.00
2024-01-11T00:28:43.484Z,0.00
2024-01-11T00:29:39.002Z,0.00
2024-01-11T00:30:37.682Z,0.00
2024-01-11T00:31:38.678Z,0.00
2024-01-11T00:32:38.284Z,0.00
2024-01-11T00:33:36.715Z,0.00
2024-01-11T00:34:38.864Z,0.00
2024-01-11T00:35:37.266Z,0.00
2024-01-11T00:36:37.646Z,0.00
2024-01-11T00:37:37.716Z,0.00
2024-01-11T00:38:38.199Z,0.00
2024-01-11T00:39:37.673Z,0.00
2024-01-11T00:40:37.604Z,0.00
2024-01-11T00:41:37.221Z,0.00
2024-01-11T00:42:38.446Z,0.00
2024-01-11T00:43:38.507Z,0.00
2024-01-11T00:44:37.907Z,0.00
2024-01-11T00:45:37.554Z,0.00
2024-01-11T00:46:36.956Z,0.00
2024-01-11T00:47:38.009Z,0.00
2024-01-11T00:48:36.630Z,0.00
2024-01-11T00:49:38.773Z,0.00
2024-01-11T00:50:38.360Z,0.00
2024-01-11T00:51:38.555Z,0.00
2024-01-11T00:52:38.238Z,0.00
2024-01-11T00:53:37.603Z,0.00
2024-01-11T00:54:38.995Z,0.00
2024-01-11T00:55:37.221Z,0.00
2024-01-11T00:56:37.616Z,0.00
2024-01-11T00:57:38.813Z,0.00
2024-01-11T00:58:38.096Z,0.00
2024-01-11T00:59:37.503Z,0.00
2024-01-11T01:00:38.594Z,0.00
2024-01-11T01:01:37.020Z,0.00
2024-01-11T01:02:37.990Z,0.00
2024-01-11T01:03:37.291Z,0.00
2024-01-11T01:04:37.680Z,0.00
2024-01-11T01:05:38.144Z,0.00
2024-01-11T01:06:38.093Z,0.00
2024-01-11T01:07:37.337Z,0.00
2024-01-11T01:08:37.958Z,0.00
2024-01-11T01:09:35.191Z,0.12
2024-01-11T01:10:34.702Z,0.52
2024-01-11T01:11:34.515Z,0.00
2024-01-11T01:12:32.442Z,0.00
2024-01-11T01:13:33.407Z,0.00
2024-01-11T01:14:33.561Z,0.00
2024-01-11T01:15:35.253Z,3.16
2024-01-11T01:16:32.758Z,0.56
2024-01-11T01:17:36.400Z,0.04
2024-01-11T01:18:36.803Z,0.00
2024-01-11T01:19:35.418Z,0.00
2024-01-11T01:20:34.881Z,0.00
2024-01-11T01:21:34.321Z,0.00
2024-01-11T01:22:35.188Z,0.00
2024-01-11T01:23:33.618Z,0.00
2024-01-11T01:24:34.297Z,0.00
2024-01-11T01:25:33.593Z,0.00
2024-01-11T01:26:34.767Z,0.00
2024-01-11T01:27:35.009Z,0.00
2024-01-11T01:28:30.712Z,0.00
2024-01-11T01:29:32.153Z,1.84
2024-01-11T01:30:31.722Z,3.72
2024-01-11T01:31:31.121Z,4.40
2024-01-11T01:32:32.120Z,3.72
2024-01-11T01:33:31.169Z,0.12
2024-01-11T01:34:33.048Z,0.00
2024-01-11T01:35:27.384Z,0.00
2024-01-11T01:36:34.367Z,2.08
2024-01-11T01:37:30.528Z,4.16
2024-01-11T01:38:32.735Z,3.16
2024-01-11T01:39:32.144Z,4.08
2024-01-11T01:40:29.778Z,3.64
2024-01-11T01:41:31.933Z,1.72
2024-01-11T01:42:31.300Z,1.44
2024-01-11T01:43:34.869Z,1.00
2024-01-11T01:44:34.076Z,0.20
2024-01-11T01:45:32.249Z,0.00
2024-01-11T01:46:31.300Z,0.00
2024-01-11T01:47:32.325Z,0.00
2024-01-11T01:48:29.746Z,0.00
2024-01-11T01:49:28.755Z,0.00
2024-01-11T01:50:29.129Z,0.00
2024-01-11T01:51:27.796Z,0.00
2024-01-11T01:52:28.288Z,0.00
2024-01-11T01:53:30.100Z,0.00
2024-01-11T01:54:31.710Z,0.00
2024-01-11T01:55:32.699Z,0.00
2024-01-11T01:56:32.939Z,0.00
2024-01-11T01:57:32.238Z,0.00
2024-01-11T01:58:30.551Z,0.00
2024-01-11T01:59:30.430Z,0.00
2024-01-11T02:00:29.165Z,0.00
2024-01-11T02:01:28.757Z,0.00
2024-01-11T02:02:27.616Z,0.00
2024-01-11T02:03:31.045Z,0.00
2024-01-11T02:04:30.128Z,0.00
2024-01-11T02:05:30.817Z,0.00
2024-01-11T02:06:32.033Z,0.00
2024-01-11T02:07:28.921Z,0.00
2024-01-11T02:08:27.415Z,0.00
2024-01-11T02:09:29.445Z,0.00
2024-01-11T02:10:27.874Z,0.00
2024-01-11T02:11:28.521Z,0.00
2024-01-11T02:12:28.263Z,0.00
2024-01-11T02:13:28.231Z,0.00
2024-01-11T02:14:36.013Z,0.00
2024-01-11T02:15:31.414Z,0.36
2024-01-11T02:16:29.746Z,1.88
2024-01-11T02:17:29.963Z,2.20
2024-01-11T02:18:28.127Z,0.32
2024-01-11T02:19:28.996Z,1.92
2024-01-11T02:20:32.476Z,0.24
2024-01-11T02:21:33.272Z,0.00
2024-01-11T02:22:32.341Z,0.00
2024-01-11T02:23:34.403Z,0.00
2024-01-11T02:24:32.686Z,0.00
2024-01-11T02:25:33.490Z,0.00
2024-01-11T02:26:35.001Z,0.00
2024-01-11T02:27:32.377Z,0.00
2024-01-11T02:28:33.061Z,0.00
2024-01-11T02:29:28.220Z,0.32
2024-01-11T02:30:29.413Z,2.00
2024-01-11T02:31:31.078Z,1.04
2024-01-11T02:32:29.737Z,1.48
2024-01-11T02:33:30.596Z,2.56
2024-01-11T02:34:29.220Z,2.56
2024-01-11T02:35:28.577Z,3.60
2024-01-11T02:36:29.678Z,2.84
2024-01-11T02:37:30.154Z,3.24
2024-01-11T02:38:29.337Z,4.08
2024-01-11T02:39:27.734Z,0.76
2024-01-11T02:40:29.196Z,1.92
2024-01-11T02:41:28.000Z,2.00
2024-01-11T02:42:27.987Z,1.64
2024-01-11T02:43:27.369Z,2.72
2024-01-11T02:44:27.334Z,3.76
2024-01-11T02:45:27.969Z,2.16
2024-01-11T02:46:27.701Z,1.24
2024-01-11T02:47:28.852Z,3.88
2024-01-11T02:48:28.739Z,2.00
2024-01-11T02:49:30.470Z,1.20
2024-01-11T02:50:29.930Z,3.44
2024-01-11T02:51:30.576Z,1.04
2024-01-11T02:52:30.070Z,2.60
2024-01-11T02:53:28.855Z,3.12
2024-01-11T02:54:29.627Z,1.92
2024-01-11T02:55:29.433Z,2.52
2024-01-11T02:56:28.758Z,2.52
2024-01-11T02:57:29.449Z,1.72
2024-01-11T02:58:29.760Z,3.36
2024-01-11T02:59:27.779Z,2.80
2024-01-11T03:00:28.819Z,2.36
2024-01-11T03:01:28.608Z,0.72
2024-01-11T03:02:29.227Z,1.36
2024-01-11T03:03:29.015Z,1.88
2024-01-11T03:04:29.776Z,1.84
2024-01-11T03:05:34.525Z,1.32
2024-01-11T03:06:33.811Z,1.36
2024-01-11T03:07:32.734Z,0.64
2024-01-11T03:08:33.002Z,1.52
2024-01-11T03:09:33.982Z,0.24
2024-01-11T03:10:34.797Z,0.00
2024-01-11T03:11:34.107Z,0.16
2024-01-11T03:12:34.705Z,0.12
2024-01-11T03:13:34.333Z,0.00
2024-01-11T03:14:31.853Z,0.00
2024-01-11T03:15:29.651Z,0.12
2024-01-11T03:16:32.988Z,0.00
2024-01-11T03:17:31.637Z,0.00
2024-01-11T03:18:31.790Z,0.00
2024-01-11T03:19:33.522Z,0.00
2024-01-11T03:20:31.118Z,0.00
2024-01-11T03:21:30.315Z,0.00
2024-01-11T03:22:28.927Z,0.00
2024-01-11T03:23:27.503Z,0.00
2024-01-11T03:24:33.470Z,0.00
2024-01-11T03:25:29.669Z,0.00
2024-01-11T03:26:30.773Z,0.00
2024-01-11T03:27:33.057Z,0.00
2024-01-11T03:28:32.717Z,0.00
2024-01-11T03:29:33.671Z,0.00
2024-01-11T03:30:32.214Z,0.00
2024-01-11T03:31:33.124Z,0.00
2024-01-11T03:32:32.863Z,0.00
2024-01-11T03:33:31.675Z,0.00
2024-01-11T03:34:32.171Z,0.00
2024-01-11T03:35:31.755Z,0.00
2024-01-11T03:36:32.961Z,0.00
2024-01-11T03:37:31.827Z,0.00
2024-01-11T03:38:31.242Z,0.00
2024-01-11T03:39:34.012Z,0.00
2024-01-11T03:40:30.321Z,0.00
2024-01-11T03:41:32.405Z,0.00
2024-01-11T03:42:29.926Z,0.00
2024-01-11T03:43:27.630Z,0.00
2024-01-11T03:44:28.826Z,0.04
2024-01-11T03:45:28.557Z,0.08
2024-01-11T03:46:29.280Z,0.68
2024-01-11T03:47:28.055Z,0.84
2024-01-11T03:48:28.847Z,0.00
2024-01-11T03:49:30.436Z,0.00
2024-01-11T03:50:34.040Z,0.00
2024-01-11T03:51:32.454Z,0.00
2024-01-11T03:52:33.762Z,0.00
2024-01-11T03:53:31.319Z,0.00
2024-01-11T03:54:30.839Z,0.00
2024-01-11T03:55:30.204Z,0.00
2024-01-11T03:56:30.641Z,0.00
2024-01-11T03:57:29.911Z,0.00
2024-01-11T03:58:26.937Z,0.00
2024-01-11T03:59:27.397Z,0.00
2024-01-11T04:00:27.684Z,0.00
2024-01-11T04:01:27.921Z,0.00
2024-01-11T04:02:28.939Z,0.00
2024-01-11T04:03:27.910Z,0.00
2024-01-11T04:04:28.515Z,0.92
2024-01-11T04:05:28.147Z,0.68
2024-01-11T04:06:28.466Z,0.08
2024-01-11T04:07:27.958Z,0.48
2024-01-11T04:08:26.930Z,0.08
2024-01-11T04:09:28.934Z,0.00
2024-01-11T04:10:27.544Z,0.00
2024-01-11T04:11:27.803Z,0.00
2024-01-11T04:12:27.881Z,0.04
2024-01-11T04:13:28.054Z,0.00
2024-01-11T04:14:28.871Z,0.00
2024-01-11T04:15:27.433Z,0.00
2024-01-11T04:16:28.167Z,0.00
2024-01-11T04:17:27.386Z,0.00
2024-01-11T04:18:28.971Z,0.00
2024-01-11T04:19:27.720Z,0.00
2024-01-11T04:20:28.051Z,0.00
2024-01-11T04:21:27.280Z,0.00
2024-01-11T04:22:27.329Z,0.00
2024-01-11T04:23:27.346Z,0.00
2024-01-11T04:24:27.275Z,0.00
2024-01-11T04:25:27.088Z,0.00
2024-01-11T04:26:27.510Z,0.00
2024-01-11T04:27:27.770Z,0.00
2024-01-11T04:28:27.816Z,0.00
2024-01-11T04:29:28.075Z,0.00
2024-01-11T04:30:26.868Z,0.00
2024-01-11T04:31:27.098Z,0.00
2024-01-11T04:32:27.350Z,0.00
2024-01-11T04:33:27.443Z,0.00
2024-01-11T04:34:27.888Z,0.00
2024-01-11T04:35:27.296Z,0.00
2024-01-11T04:36:27.242Z,0.00
2024-01-11T04:37:27.278Z,0.00
2024-01-11T04:38:26.991Z,0.00
2024-01-11T04:39:27.088Z,0.00
2024-01-11T04:40:27.786Z,0.00
2024-01-11T04:41:28.810Z,0.00
2024-01-11T04:42:28.716Z,0.00
2024-01-11T04:43:28.273Z,0.00
2024-01-11T04:44:28.133Z,0.00
2024-01-11T04:45:27.628Z,0.00
2024-01-11T04:46:28.514Z,0.00
2024-01-11T04:47:27.786Z,0.00
2024-01-11T04:48:27.873Z,0.00
2024-01-11T04:49:27.147Z,0.00
2024-01-11T04:50:27.306Z,0.00
2024-01-11T04:51:27.091Z,0.00
2024-01-11T04:52:27.054Z,0.00
2024-01-11T04:53:27.383Z,0.00
2024-01-11T04:54:27.167Z,0.80
2024-01-11T04:55:26.959Z,0.12
2024-01-11T04:56:26.804Z,0.00
2024-01-11T04:57:27.689Z,0.00
2024-01-11T04:58:27.474Z,0.00
2024-01-11T04:59:28.691Z,0.00
2024-01-11T05:00:28.010Z,0.00
2024-01-11T05:01:26.914Z,1.00
2024-01-11T05:02:27.084Z,1.96
2024-01-11T05:03:27.548Z,2.56
2024-01-11T05:04:27.436Z,1.68
2024-01-11T05:05:27.709Z,1.32
2024-01-11T05:06:27.948Z,0.68
2024-01-11T05:07:27.333Z,0.92
2024-01-11T05:08:27.737Z,1.48
2024-01-11T05:09:27.978Z,3.48
2024-01-11T05:10:26.980Z,0.88
2024-01-11T05:11:27.119Z,1.44
2024-01-11T05:12:27.299Z,2.52
2024-01-11T05:13:27.206Z,3.00
2024-01-11T05:14:27.107Z,1.64
2024-01-11T05:15:27.029Z,2.24
2024-01-11T05:16:27.065Z,2.80
2024-01-11T05:17:27.867Z,4.88
2024-01-11T05:18:27.686Z,4.28
2024-01-11T05:19:27.511Z,3.20
2024-01-11T05:20:27.445Z,1.68
2024-01-11T05:21:28.011Z,1.04
2024-01-11T05:22:26.982Z,0.36
2024-01-11T05:24:31.365Z,2.16
2024-01-11T05:25:27.156Z,1.32
2024-01-11T05:26:35.633Z,1.44
2024-01-11T05:27:27.891Z,2.06
2024-01-11T05:28:26.972Z,1.68
2024-01-11T05:29:27.030Z,4.04
2024-01-11T05:30:30.429Z,3.24
2024-01-11T05:31:27.317Z,2.08
2024-01-11T05:32:27.316Z,0.80
2024-01-11T05:33:27.328Z,2.76
2024-01-11T05:34:36.490Z,4.56
2024-01-11T05:35:27.587Z,4.08
2024-01-11T05:36:27.655Z,4.60
2024-01-11T05:37:27.542Z,3.56
2024-01-11T05:38:27.817Z,4.96
2024-01-11T05:39:27.785Z,3.68
2024-01-11T05:40:28.218Z,2.52
2024-01-11T05:41:27.075Z,2.36
2024-01-11T05:42:27.013Z,2.20
2024-01-11T05:43:27.019Z,2.84
2024-01-11T05:44:27.211Z,2.60
2024-01-11T05:45:35.847Z,2.72
2024-01-11T05:46:27.393Z,2.16
2024-01-11T05:47:28.197Z,0.72
2024-01-11T05:48:27.768Z,1.16
2024-01-11T05:49:28.698Z,1.28
2024-01-11T05:50:28.308Z,1.12
2024-01-11T05:51:27.259Z,0.28
2024-01-11T05:52:28.008Z,0.84
2024-01-11T05:53:27.607Z,0.80
2024-01-11T05:54:28.230Z,2.16
2024-01-11T05:55:28.658Z,0.32
2024-01-11T05:56:28.461Z,0.20
2024-01-11T05:57:27.717Z,0.08
2024-01-11T05:58:28.125Z,0.72
2024-01-11T05:59:27.550Z,0.52
2024-01-11T06:00:54.743Z,0.72
2024-01-11T06:01:27.650Z,0.12
2024-01-11T06:02:27.872Z,0.00
2024-01-11T06:03:26.689Z,1.04
2024-01-11T06:04:27.852Z,0.72
2024-01-11T06:05:27.724Z,1.52
2024-01-11T06:06:35.508Z,0.28
2024-01-11T06:07:35.888Z,0.00
2024-01-11T06:08:34.440Z,0.00
2024-01-11T06:09:35.747Z,0.00
2024-01-11T06:10:34.559Z,0.00
2024-01-11T06:11:34.712Z,0.00
2024-01-11T06:12:34.760Z,0.00
2024-01-11T06:13:33.935Z,0.00
2024-01-11T06:14:33.796Z,0.00
2024-01-11T06:15:35.596Z,0.00
2024-01-11T06:16:34.915Z,0.00
2024-01-11T06:17:36.575Z,0.04
2024-01-11T06:18:35.451Z,0.00
2024-01-11T06:19:41.472Z,0.00
2024-01-11T06:20:34.355Z,0.32
2024-01-11T06:21:38.092Z,0.00
2024-01-11T06:22:44.432Z,0.00
2024-01-11T06:23:37.905Z,0.00
2024-01-11T06:24:36.983Z,0.00
2024-01-11T06:25:37.402Z,0.00
2024-01-11T06:26:36.720Z,0.00
2024-01-11T06:27:37.969Z,0.00
2024-01-11T06:28:37.440Z,0.00
2024-01-11T06:29:37.544Z,0.00
2024-01-11T06:30:38.743Z,0.20
2024-01-11T06:31:37.633Z,0.00
2024-01-11T06:32:38.941Z,0.00
2024-01-11T06:33:35.698Z,0.00
2024-01-11T06:34:36.660Z,0.21
2024-01-11T06:35:33.401Z,0.52
2024-01-11T06:36:33.400Z,1.52
2024-01-11T06:37:33.774Z,3.04
2024-01-11T06:38:36.128Z,3.36
2024-01-11T06:39:35.559Z,3.20
2024-01-11T06:40:34.993Z,2.36
2024-01-11T06:41:33.345Z,2.24
2024-01-11T06:42:35.764Z,0.96
2024-01-11T06:43:37.476Z,0.44
2024-01-11T06:44:36.327Z,0.08
2024-01-11T06:45:35.151Z,0.00
2024-01-11T06:46:37.170Z,0.00
2024-01-11T06:47:35.583Z,0.07
2024-01-11T06:48:32.522Z,0.24
2024-01-11T06:49:34.432Z,0.08
2024-01-11T06:50:34.172Z,0.00
2024-01-11T06:51:34.241Z,0.00
2024-01-11T06:52:35.073Z,0.00
2024-01-11T06:53:33.937Z,0.00
2024-01-11T06:54:34.051Z,0.00
2024-01-11T06:55:33.563Z,0.00
2024-01-11T06:56:36.242Z,0.00
2024-01-11T06:57:35.819Z,0.00
2024-01-11T06:58:35.019Z,0.00
2024-01-11T06:59:35.099Z,0.00
2024-01-11T07:00:33.374Z,0.00
2024-01-11T07:01:35.062Z,0.00
2024-01-11T07:02:38.393Z,0.00
2024-01-11T07:03:32.781Z,0.19
2024-01-11T07:04:34.323Z,0.68
2024-01-11T07:05:35.098Z,0.36
2024-01-11T07:06:33.301Z,0.24
2024-01-11T07:07:31.426Z,2.16
2024-01-11T07:08:33.466Z,1.04
2024-01-11T07:09:28.809Z,1.04
2024-01-11T07:10:34.933Z,0.20
2024-01-11T07:11:31.416Z,0.08
2024-01-11T07:12:35.004Z,0.16
2024-01-11T07:13:30.712Z,0.28
2024-01-11T07:14:32.829Z,1.48
2024-01-11T07:15:32.219Z,2.08
2024-01-11T07:16:36.326Z,0.48
2024-01-11T07:17:33.135Z,1.60
2024-01-11T07:18:35.762Z,1.08
2024-01-11T07:19:34.817Z,1.80
2024-01-11T07:20:32.157Z,0.96
2024-01-11T07:21:33.021Z,1.40
2024-01-11T07:22:34.365Z,1.20
2024-01-11T07:23:31.596Z,1.36
2024-01-11T07:24:34.767Z,1.60
2024-01-11T07:25:34.577Z,1.72
2024-01-11T07:26:31.491Z,0.28
2024-01-11T07:27:31.671Z,0.56
2024-01-11T07:28:33.427Z,0.00
2024-01-11T07:29:32.115Z,0.00
2024-01-11T07:30:29.332Z,0.00
2024-01-11T07:31:28.815Z,0.00
2024-01-11T07:32:28.884Z,0.00
2024-01-11T07:33:27.803Z,0.00
2024-01-11T07:34:29.552Z,0.00
2024-01-11T07:35:28.085Z,0.00
2024-01-11T07:36:27.511Z,0.00
2024-01-11T07:37:29.996Z,0.00
2024-01-11T07:38:30.215Z,0.00
2024-01-11T07:39:29.180Z,0.00
2024-01-11T07:40:28.281Z,0.00
2024-01-11T07:42:26.714Z,0.24
2024-01-11T07:42:33.178Z,0.96
2024-01-11T07:43:31.890Z,0.99
2024-01-11T07:44:28.341Z,1.08
2024-01-11T07:45:27.490Z,0.16
2024-01-11T07:46:35.781Z,0.00
2024-01-11T07:47:29.249Z,0.00
2024-01-11T07:48:29.076Z,0.00
2024-01-11T07:49:28.744Z,0.00
2024-01-11T07:50:29.288Z,0.00
2024-01-11T07:51:29.533Z,0.00
2024-01-11T07:52:29.432Z,0.00
2024-01-11T07:53:28.829Z,0.00
2024-01-11T07:54:28.729Z,0.00
2024-01-11T07:55:27.964Z,0.00
2024-01-11T07:56:28.134Z,0.00
2024-01-11T07:57:27.568Z,0.00
2024-01-11T07:58:27.756Z,0.00
2024-01-11T07:59:32.734Z,0.00
2024-01-11T08:00:31.338Z,0.00
2024-01-11T08:01:30.763Z,0.00
2024-01-11T08:02:32.287Z,0.00
2024-01-11T08:03:30.608Z,0.00
2024-01-11T08:04:30.092Z,0.00
2024-01-11T08:05:29.708Z,0.00
2024-01-11T08:06:29.949Z,0.00
2024-01-11T08:07:28.674Z,0.00
2024-01-11T08:08:34.621Z,0.00
2024-01-11T08:09:33.970Z,0.00
2024-01-11T08:10:31.983Z,0.00
2024-01-11T08:11:33.670Z,0.00
2024-01-11T08:12:31.728Z,0.00
2024-01-11T08:13:33.808Z,0.00
2024-01-11T08:14:33.218Z,0.00
2024-01-11T08:15:50.805Z,0.00
2024-01-11T08:16:34.518Z,0.05
2024-01-11T08:17:34.292Z,0.00
2024-01-11T08:18:35.621Z,0.00
2024-01-11T08:19:34.513Z,0.00
2024-01-11T08:20:34.195Z,0.00
2024-01-11T08:21:33.705Z,0.00
2024-01-11T08:22:36.178Z,0.00
2024-01-11T08:23:32.972Z,0.04
2024-01-11T08:24:39.456Z,0.48
2024-01-11T08:25:32.477Z,0.08
2024-01-11T08:27:34.374Z,0.24
2024-01-11T08:28:31.140Z,0.00
2024-01-11T08:29:34.006Z,0.20
2024-01-11T08:30:37.476Z,0.00
2024-01-11T08:31:32.677Z,0.12
2024-01-11T08:32:34.625Z,0.00
2024-01-11T08:33:32.700Z,0.00
2024-01-11T08:34:34.040Z,0.00
2024-01-11T08:35:30.740Z,0.00
2024-01-11T08:36:29.898Z,0.20
2024-01-11T08:37:31.367Z,0.40
2024-01-11T08:39:09.640Z,0.24
2024-01-11T08:39:33.292Z,0.12
2024-01-11T08:40:32.511Z,0.00
2024-01-11T08:41:35.616Z,0.00
2024-01-11T08:42:29.620Z,0.24
2024-01-11T08:43:33.543Z,0.80
2024-01-11T08:44:28.972Z,1.40
2024-01-11T08:45:32.931Z,0.12
2024-01-11T08:51:31.057Z,0.12
2024-01-11T08:52:32.696Z,0.00
2024-01-11T08:53:29.449Z,0.04
2024-01-11T08:54:57.240Z,0.00
2024-01-11T08:55:32.421Z,3.00
2024-01-11T08:56:42.140Z,0.48
2024-01-11T08:57:31.667Z,0.72
2024-01-11T08:58:46.434Z,2.88
2024-01-11T08:59:29.283Z,1.56
2024-01-11T09:00:38.423Z,1.64
2024-01-11T09:01:27.667Z,0.04
2024-01-11T09:02:28.316Z,0.08
2024-01-11T09:03:48.272Z,4.44
2024-01-11T09:04:29.669Z,2.64
2024-01-11T09:05:28.048Z,2.32
2024-01-11T09:06:27.094Z,3.48
2024-01-11T09:07:26.983Z,1.44
2024-01-11T09:08:37.202Z,0.43
2024-01-11T09:09:28.437Z,0.24
2024-01-11T09:10:27.461Z,0.00
2024-01-11T09:14:28.221Z,1.32
2024-01-11T09:15:27.028Z,0.08
2024-01-11T09:17:29.545Z,1.20
2024-01-11T09:18:27.920Z,1.92
2024-01-11T09:20:30.794Z,1.44
2024-01-11T09:21:41.759Z,0.36
2024-01-11T09:23:27.431Z,3.60
2024-01-11T09:24:57.834Z,2.32
2024-01-11T09:25:46.278Z,0.96
2024-01-11T09:26:29.056Z,1.92
2024-01-11T09:27:26.916Z,2.12
2024-01-11T09:28:27.322Z,0.64
2024-01-11T09:29:28.341Z,1.32
2024-01-11T09:30:47.744Z,0.12
2024-01-11T09:31:29.373Z,0.12
2024-01-11T09:32:28.521Z,0.00
2024-01-11T09:34:29.643Z,0.24
2024-01-11T09:36:24.522Z,0.00
2024-01-11T09:36:32.138Z,1.44
2024-01-11T09:37:28.158Z,2.44
2024-01-11T09:38:44.145Z,1.44
2024-01-11T09:39:48.610Z,2.28
2024-01-11T09:40:30.462Z,0.80
2024-01-11T09:41:38.083Z,1.44
2024-01-11T09:42:54.099Z,0.00
2024-01-11T09:44:35.138Z,0.08
2024-01-11T09:45:35.791Z,0.16
2024-01-11T09:47:45.004Z,0.24
2024-01-11T09:48:36.186Z,0.24
2024-01-11T09:49:52.481Z,0.08
2024-01-11T09:51:06.841Z,0.24
2024-01-11T09:51:36.459Z,0.24
2024-01-11T09:53:35.601Z,1.92
2024-01-11T09:54:44.718Z,2.12
2024-01-11T09:55:34.484Z,3.64
2024-01-11T09:56:32.520Z,1.96
2024-01-11T09:57:47.393Z,5.28
2024-01-11T09:58:35.359Z,2.58
2024-01-11T09:59:43.457Z,1.80
2024-01-11T10:00:37.300Z,3.12
2024-01-11T10:01:43.255Z,1.20
2024-01-11T10:02:33.428Z,1.56
2024-01-11T10:03:35.007Z,0.76
2024-01-11T10:04:48.805Z,0.66
2024-01-11T10:05:36.850Z,1.56
2024-01-11T10:07:02.091Z,0.40
2024-01-11T10:07:34.648Z,0.24
2024-01-11T10:08:38.142Z,0.08
2024-01-11T10:09:35.305Z,1.88
2024-01-11T10:10:35.683Z,4.16
2024-01-11T10:11:35.026Z,1.76
2024-01-11T10:12:52.760Z,0.60
2024-01-11T10:14:41.543Z,5.04
2024-01-11T10:15:34.821Z,6.18
2024-01-11T10:16:37.680Z,2.52
2024-01-11T10:17:42.087Z,4.24
2024-01-11T10:18:33.356Z,2.28
2024-01-11T10:19:55.575Z,5.52
2024-01-11T10:21:34.645Z,10.56
2024-01-11T10:22:33.832Z,2.64
2024-01-11T10:25:44.315Z,4.92
2024-01-11T10:28:33.845Z,6.16
2024-01-11T10:29:55.634Z,5.44
2024-01-11T10:30:36.723Z,2.88
2024-01-11T10:31:33.782Z,5.76
2024-01-11T10:32:30.398Z,3.52
2024-01-11T10:34:30.192Z,4.56
2024-01-11T10:35:38.492Z,5.38
2024-01-11T10:36:32.084Z,6.72
2024-01-11T10:37:28.895Z,5.24
2024-01-11T10:39:31.160Z,0.84
2024-01-11T10:40:39.100Z,0.24
2024-01-11T10:41:54.063Z,0.48
2024-01-11T10:43:30.263Z,0.36
2024-01-11T10:44:48.303Z,2.80
2024-01-11T10:45:29.808Z,6.12
2024-01-11T10:46:31.378Z,4.16
2024-01-11T10:47:28.857Z,11.04
2024-01-11T10:48:30.504Z,7.48
2024-01-11T10:49:34.786Z,11.28
2024-01-11T10:51:06.935Z,6.12
2024-01-11T10:51:31.661Z,7.20
2024-01-11T10:52:33.789Z,4.52
2024-01-11T10:53:39.059Z,3.72
2024-01-11T10:54:33.668Z,0.88
2024-01-11T10:55:33.832Z,2.76
2024-01-11T10:56:34.018Z,3.12
2024-01-11T10:57:32.846Z,3.52
2024-01-11T10:58:35.212Z,0.60
2024-01-11T10:59:31.447Z,0.80
2024-01-11T11:00:34.079Z,0.00
2024-01-11T11:01:31.660Z,0.00
2024-01-11T11:02:34.543Z,0.08
2024-01-11T11:03:32.623Z,0.44
2024-01-11T11:04:29.283Z,0.00
2024-01-11T11:05:45.975Z,2.04
2024-01-11T11:06:33.186Z,0.12
2024-01-11T11:07:28.083Z,0.52
2024-01-11T11:08:27.639Z,4.80
2024-01-11T11:09:38.090Z,7.49
2024-01-11T11:10:30.879Z,2.64
2024-01-11T11:11:27.469Z,0.80
2024-01-11T11:12:28.055Z,0.56
2024-01-11T11:13:27.404Z,0.00
2024-01-11T11:14:37.935Z,1.40
2024-01-11T11:15:27.426Z,0.00
2024-01-11T11:16:27.720Z,0.04
2024-01-11T11:17:27.800Z,0.20
2024-01-11T11:18:28.636Z,0.00
2024-01-11T11:19:27.725Z,0.00
2024-01-11T11:20:38.437Z,0.24
2024-01-11T11:21:28.190Z,0.00
2024-01-11T11:22:27.625Z,0.00
2024-01-11T11:23:27.738Z,0.00
2024-01-11T11:25:02.762Z,2.96
2024-01-11T11:25:29.505Z,0.96
2024-01-11T11:26:27.454Z,0.14
2024-01-11T11:27:27.337Z,0.00
2024-01-11T11:28:27.255Z,2.60
2024-01-11T11:30:02.075Z,0.00
2024-01-11T11:30:27.451Z,5.20
2024-01-11T11:31:28.054Z,6.28
2024-01-11T11:32:51.738Z,4.32
2024-01-11T11:33:29.963Z,3.60
2024-01-11T11:34:38.757Z,2.76
2024-01-11T11:35:29.167Z,0.84
2024-01-11T11:36:32.731Z,0.00
2024-01-11T11:37:38.962Z,2.88
2024-01-11T11:38:28.634Z,2.88
2024-01-11T11:39:27.825Z,3.84
2024-01-11T11:40:27.895Z,2.68
2024-01-11T11:42:32.246Z,0.24
2024-01-11T11:43:27.110Z,0.04
2024-01-11T11:44:27.122Z,0.00
2024-01-11T11:45:27.306Z,0.04
2024-01-11T11:46:27.735Z,0.68
2024-01-11T11:47:27.785Z,0.56
2024-01-11T11:48:27.853Z,0.84
2024-01-11T11:49:26.723Z,1.12
2024-01-11T11:52:38.863Z,2.70
2024-01-11T11:53:27.854Z,0.12
2024-01-11T11:54:37.860Z,1.00
2024-01-11T11:55:38.003Z,0.80
2024-01-11T11:56:27.196Z,2.88
2024-01-11T11:57:28.387Z,0.68
2024-01-11T11:58:58.268Z,6.16
2024-01-11T11:59:43.932Z,13.20
2024-01-11T12:00:31.220Z,12.48
2024-01-11T12:01:27.529Z,11.44
2024-01-11T12:02:32.628Z,5.52
2024-01-11T12:03:44.229Z,3.54
2024-01-11T12:04:28.789Z,0.48
2024-01-11T12:05:32.776Z,0.40
2024-01-11T12:06:30.275Z,4.44
2024-01-11T12:07:27.471Z,14.52
2024-01-11T12:08:27.615Z,4.68
2024-01-11T12:09:48.784Z,11.22
2024-01-11T12:11:30.536Z,5.04
2024-01-11T12:12:28.353Z,3.92
2024-01-11T12:13:49.164Z,3.84
2024-01-11T12:14:29.264Z,7.44
2024-01-11T12:15:28.237Z,4.76
2024-01-11T12:16:34.487Z,11.52
2024-01-11T12:17:28.188Z,4.48
2024-01-11T12:18:29.476Z,5.76
2024-01-11T12:19:28.813Z,8.92
2024-01-11T12:20:27.708Z,6.84
2024-01-11T12:21:29.498Z,9.16
2024-01-11T12:22:28.722Z,8.24
2024-01-11T12:23:43.810Z,11.88
2024-01-11T12:24:30.455Z,1.68
2024-01-11T12:25:28.209Z,1.68
2024-01-11T12:26:28.180Z,4.96
2024-01-11T12:27:28.960Z,2.12
2024-01-11T12:28:28.381Z,1.64
2024-01-11T12:29:56.058Z,8.88
2024-01-11T12:30:33.589Z,9.52
2024-01-11T12:31:28.952Z,14.28
2024-01-11T12:32:27.252Z,14.64
2024-01-11T12:33:44.072Z,8.64
2024-01-11T12:34:28.193Z,15.06
2024-01-11T12:35:27.812Z,13.76
2024-01-11T12:36:28.874Z,6.80
2024-01-11T12:37:28.740Z,12.48
2024-01-11T12:38:29.786Z,19.20
2024-01-11T12:39:32.092Z,4.73
2024-01-11T12:40:28.568Z,9.56
2024-01-11T12:41:28.474Z,7.04
2024-01-11T12:42:38.441Z,4.32
2024-01-11T12:44:27.299Z,2.82
2024-01-11T12:45:31.566Z,21.60
2024-01-11T12:46:28.153Z,13.84
2024-01-11T12:47:27.358Z,6.84
2024-01-11T12:48:33.633Z,2.88
2024-01-11T12:49:28.176Z,8.28
2024-01-11T12:52:27.915Z,10.44
2024-01-11T12:53:26.860Z,15.88
2024-01-11T12:54:28.629Z,14.72
2024-01-11T12:55:27.907Z,8.52
2024-01-11T12:56:27.104Z,11.92
2024-01-11T12:57:47.321Z,13.56
2024-01-11T12:58:27.959Z,7.92
2024-01-11T12:59:27.373Z,6.72
2024-01-11T13:00:48.391Z,1.76
2024-01-11T13:01:28.650Z,8.88
2024-01-11T13:02:27.921Z,5.28
2024-01-11T13:03:27.774Z,9.80
2024-01-11T13:04:27.862Z,11.16
2024-01-11T13:05:26.849Z,9.28
2024-01-11T13:06:29.116Z,7.95
2024-01-11T13:07:27.353Z,7.52
2024-01-11T13:08:27.771Z,5.92
2024-01-11T13:09:27.786Z,4.76
2024-01-11T13:10:27.823Z,4.28
2024-01-11T13:11:28.259Z,2.48
2024-01-11T13:12:27.575Z,5.68
2024-01-11T13:13:27.772Z,3.08
2024-01-11T13:14:27.688Z,3.80
2024-01-11T13:15:27.677Z,1.28
2024-01-11T13:16:27.559Z,2.44
2024-01-11T13:17:27.740Z,1.24
2024-01-11T13:18:27.820Z,1.72
2024-01-11T13:19:28.162Z,3.48
2024-01-11T13:20:29.513Z,2.52
2024-01-11T13:21:27.935Z,1.20
2024-01-11T13:22:27.085Z,0.16
2024-01-11T13:23:27.136Z,0.68
2024-01-11T13:24:26.916Z,1.76
2024-01-11T13:25:26.724Z,6.04
2024-01-11T13:26:28.402Z,9.72
2024-01-11T13:27:27.231Z,5.24
2024-01-11T13:28:27.404Z,2.44
2024-01-11T13:29:27.844Z,4.32
2024-01-11T13:30:27.858Z,6.28
2024-01-11T13:31:28.069Z,5.64
2024-01-11T13:32:27.416Z,7.76
2024-01-11T13:33:27.427Z,4.44
2024-01-11T13:34:27.717Z,8.72
2024-01-11T13:35:28.286Z,11.44
2024-01-11T13:36:27.445Z,10.32
2024-01-11T13:37:27.838Z,11.80
2024-01-11T13:38:27.790Z,5.00
2024-01-11T13:39:27.769Z,4.04
2024-01-11T13:40:27.751Z,6.12
2024-01-11T13:41:27.716Z,11.40
2024-01-11T13:42:27.800Z,11.08
2024-01-11T13:43:29.289Z,7.32
2024-01-11T13:44:27.166Z,8.68
2024-01-11T13:45:27.349Z,5.40
2024-01-11T13:46:27.461Z,5.00
2024-01-11T13:47:27.425Z,4.00
2024-01-11T13:48:27.542Z,7.08
2024-01-11T13:49:27.830Z,3.88
2024-01-11T13:50:26.863Z,1.92